sensor_id;sensor_type;location;lat;lon;timestamp;pressure;altitude;pressure_sealevel;temperature;humidity
38289;BME280;24092;53.370;-6.588;2022-07-19T00:01:15;100568.25;;;20.57;97.44
38289;BME280;24092;53.370;-6.588;2022-07-19T00:03:43;100552.12;;;19.82;99.34
38289;BME280;24092;53.370;-6.588;2022-07-19T00:06:10;100542.68;;;18.75;100.00
38289;BME280;24092;53.370;-6.588;2022-07-19T00:08:38;100545.64;;;19.55;100.00
38289;BME280;24092;53.370;-6.588;2022-07-19T00:13:58;100567.51;;;19.87;96.84
38289;BME280;24092;53.370;-6.588;2022-07-19T00:16:25;100560.70;;;18.55;100.00
38289;BME280;24092;53.370;-6.588;2022-07-19T00:18:53;100542.68;;;16.25;100.00
38289;BME280;24092;53.370;-6.588;2022-07-19T00:21:20;100541.25;;;16.90;100.00
38289;BME280;24092;53.370;-6.588;2022-07-19T00:23:48;100525.40;;;16.22;100.00
38289;BME280;24092;53.370;-6.588;2022-07-19T00:26:15;100519.00;;;16.65;100.00
38289;BME280;24092;53.370;-6.588;2022-07-19T00:28:43;100516.43;;;16.20;100.00
38289;BME280;24092;53.370;-6.588;2022-07-19T00:31:11;100523.40;;;17.91;100.00
38289;BME280;24092;53.370;-6.588;2022-07-19T00:33:38;100518.55;;;17.59;100.00
38289;BME280;24092;53.370;-6.588;2022-07-19T00:36:06;100521.13;;;18.03;100.00
38289;BME280;24092;53.370;-6.588;2022-07-19T00:38:33;100516.28;;;16.86;100.00
38289;BME280;24092;53.370;-6.588;2022-07-19T00:41:01;100527.32;;;19.10;100.00
38289;BME280;24092;53.370;-6.588;2022-07-19T00:43:28;100524.98;;;18.48;100.00
38289;BME280;24092;53.370;-6.588;2022-07-19T00:45:56;100525.10;;;19.39;100.00
38289;BME280;24092;53.370;-6.588;2022-07-19T00:48:23;100520.21;;;19.16;100.00
38289;BME280;24092;53.370;-6.588;2022-07-19T00:50:51;100516.12;;;18.54;100.00
38289;BME280;24092;53.370;-6.588;2022-07-19T00:53:19;100521.54;;;17.98;100.00
38289;BME280;24092;53.370;-6.588;2022-07-19T00:55:47;100512.79;;;18.33;100.00
38289;BME280;24092;53.370;-6.588;2022-07-19T00:58:16;100511.51;;;16.49;100.00
38289;BME280;24092;53.370;-6.588;2022-07-19T01:00:44;100508.25;;;16.07;100.00
38289;BME280;24092;53.370;-6.588;2022-07-19T01:03:12;100507.55;;;15.28;100.00
38289;BME280;24092;53.370;-6.588;2022-07-19T01:05:40;100502.84;;;16.40;100.00
38289;BME280;24092;53.370;-6.588;2022-07-19T01:08:07;100503.31;;;17.55;100.00
38289;BME280;24092;53.370;-6.588;2022-07-19T01:10:35;100508.89;;;15.43;100.00
38289;BME280;24092;53.370;-6.588;2022-07-19T02:24:41;100505.88;;;16.49;100.00
38289;BME280;24092;53.370;-6.588;2022-07-19T02:27:08;100478.97;;;12.23;100.00
38289;BME280;24092;53.370;-6.588;2022-07-19T02:29:34;100480.41;;;13.24;100.00
38289;BME280;24092;53.370;-6.588;2022-07-19T02:31:24;100471.52;;;13.39;100.00
38289;BME280;24092;53.370;-6.588;2022-07-19T02:33:50;100469.30;;;14.48;100.00
38289;BME280;24092;53.370;-6.588;2022-07-19T02:36:17;100467.20;;;13.17;100.00
38289;BME280;24092;53.370;-6.588;2022-07-19T02:38:44;100469.31;;;14.10;100.00
38289;BME280;24092;53.370;-6.588;2022-07-19T02:41:10;100464.47;;;14.74;100.00
38289;BME280;24092;53.370;-6.588;2022-07-19T02:43:37;100456.48;;;14.65;100.00
38289;BME280;24092;53.370;-6.588;2022-07-19T02:46:04;100449.68;;;14.21;100.00
38289;BME280;24092;53.370;-6.588;2022-07-19T02:48:31;100451.54;;;15.63;100.00
38289;BME280;24092;53.370;-6.588;2022-07-19T02:50:59;100449.33;;;14.51;100.00
38289;BME280;24092;53.370;-6.588;2022-07-19T02:53:26;100447.27;;;14.87;100.00
38289;BME280;24092;53.370;-6.588;2022-07-19T02:55:53;100442.09;;;14.01;100.00
38289;BME280;24092;53.370;-6.588;2022-07-19T02:58:20;100440.58;;;14.00;100.00
38289;BME280;24092;53.370;-6.588;2022-07-19T03:00:46;100438.73;;;13.58;100.00
38289;BME280;24092;53.370;-6.588;2022-07-19T03:03:14;100434.35;;;13.42;100.00
38289;BME280;24092;53.370;-6.588;2022-07-19T03:05:41;100427.65;;;13.67;100.00
38289;BME280;24092;53.370;-6.588;2022-07-19T03:08:08;100424.49;;;14.05;100.00
38289;BME280;24092;53.370;-6.588;2022-07-19T03:10:35;100418.77;;;14.02;100.00
38289;BME280;24092;53.370;-6.588;2022-07-19T03:13:03;100414.95;;;13.87;100.00
38289;BME280;24092;53.370;-6.588;2022-07-19T03:15:30;100406.79;;;13.91;100.00
38289;BME280;24092;53.370;-6.588;2022-07-19T03:17:58;100407.95;;;14.67;100.00
38289;BME280;24092;53.370;-6.588;2022-07-19T03:20:25;100400.82;;;13.44;100.00
38289;BME280;24092;53.370;-6.588;2022-07-19T03:22:52;100400.26;;;13.19;100.00
38289;BME280;24092;53.370;-6.588;2022-07-19T03:25:19;100394.46;;;13.71;100.00
38289;BME280;24092;53.370;-6.588;2022-07-19T03:27:47;100389.84;;;15.55;100.00
38289;BME280;24092;53.370;-6.588;2022-07-19T03:30:14;100386.48;;;14.27;100.00
38289;BME280;24092;53.370;-6.588;2022-07-19T03:32:41;100390.37;;;15.36;100.00
38289;BME280;24092;53.370;-6.588;2022-07-19T03:35:08;100387.40;;;15.76;100.00
38289;BME280;24092;53.370;-6.588;2022-07-19T03:37:35;100384.10;;;16.55;100.00
38289;BME280;24092;53.370;-6.588;2022-07-19T03:40:04;100379.03;;;16.17;100.00
38289;BME280;24092;53.370;-6.588;2022-07-19T03:42:31;100376.04;;;16.06;100.00
38289;BME280;24092;53.370;-6.588;2022-07-19T03:44:58;100372.71;;;15.94;100.00
38289;BME280;24092;53.370;-6.588;2022-07-19T03:47:26;100371.38;;;15.74;100.00
38289;BME280;24092;53.370;-6.588;2022-07-19T03:49:53;100372.10;;;14.84;100.00
38289;BME280;24092;53.370;-6.588;2022-07-19T03:52:21;100370.60;;;14.56;100.00
38289;BME280;24092;53.370;-6.588;2022-07-19T03:54:49;100359.03;;;13.87;100.00
38289;BME280;24092;53.370;-6.588;2022-07-19T03:57:16;100358.53;;;13.57;100.00
38289;BME280;24092;53.370;-6.588;2022-07-19T03:59:44;100358.06;;;13.64;100.00
38289;BME280;24092;53.370;-6.588;2022-07-19T04:02:11;100359.43;;;14.49;100.00
38289;BME280;24092;53.370;-6.588;2022-07-19T04:04:39;100357.98;;;14.88;100.00
38289;BME280;24092;53.370;-6.588;2022-07-19T04:07:06;100359.23;;;14.99;100.00
38289;BME280;24092;53.370;-6.588;2022-07-19T04:09:33;100354.03;;;16.12;100.00
38289;BME280;24092;53.370;-6.588;2022-07-19T04:12:01;100347.26;;;15.17;100.00
38289;BME280;24092;53.370;-6.588;2022-07-19T04:14:28;100342.12;;;15.36;100.00
38289;BME280;24092;53.370;-6.588;2022-07-19T04:16:55;100341.43;;;14.19;100.00
38289;BME280;24092;53.370;-6.588;2022-07-19T04:19:22;100341.67;;;14.04;100.00
38289;BME280;24092;53.370;-6.588;2022-07-19T04:21:50;100338.40;;;15.39;100.00
38289;BME280;24092;53.370;-6.588;2022-07-19T04:24:16;100339.05;;;15.31;100.00
38289;BME280;24092;53.370;-6.588;2022-07-19T04:26:43;100339.66;;;15.61;100.00
38289;BME280;24092;53.370;-6.588;2022-07-19T04:29:10;100340.98;;;14.99;100.00
38289;BME280;24092;53.370;-6.588;2022-07-19T04:31:37;100342.69;;;14.25;100.00
38289;BME280;24092;53.370;-6.588;2022-07-19T04:34:05;100340.40;;;14.41;100.00
38289;BME280;24092;53.370;-6.588;2022-07-19T04:36:33;100337.87;;;14.05;100.00
38289;BME280;24092;53.370;-6.588;2022-07-19T04:39:00;100328.76;;;15.57;100.00
38289;BME280;24092;53.370;-6.588;2022-07-19T04:41:27;100326.55;;;13.65;100.00
38289;BME280;24092;53.370;-6.588;2022-07-19T04:43:54;100324.57;;;14.88;100.00
38289;BME280;24092;53.370;-6.588;2022-07-19T04:46:21;100329.38;;;15.63;100.00
38289;BME280;24092;53.370;-6.588;2022-07-19T04:48:49;100328.81;;;15.72;100.00
38289;BME280;24092;53.370;-6.588;2022-07-19T04:51:16;100330.20;;;14.57;100.00
38289;BME280;24092;53.370;-6.588;2022-07-19T04:53:42;100320.65;;;14.24;100.00
38289;BME280;24092;53.370;-6.588;2022-07-19T04:56:09;100306.00;;;13.55;100.00
38289;BME280;24092;53.370;-6.588;2022-07-19T04:58:37;100305.08;;;14.16;100.00
38289;BME280;24092;53.370;-6.588;2022-07-19T05:01:04;100303.77;;;14.98;100.00
38289;BME280;24092;53.370;-6.588;2022-07-19T05:03:32;100307.41;;;15.71;100.00
38289;BME280;24092;53.370;-6.588;2022-07-19T05:05:58;100309.41;;;16.88;100.00
38289;BME280;24092;53.370;-6.588;2022-07-19T05:08:26;100309.59;;;17.11;100.00
38289;BME280;24092;53.370;-6.588;2022-07-19T05:10:54;100305.93;;;17.35;100.00
38289;BME280;24092;53.370;-6.588;2022-07-19T05:13:21;100305.98;;;16.85;100.00
38289;BME280;24092;53.370;-6.588;2022-07-19T05:15:48;100304.40;;;17.89;100.00
38289;BME280;24092;53.370;-6.588;2022-07-19T05:18:16;100303.10;;;16.21;100.00
38289;BME280;24092;53.370;-6.588;2022-07-19T05:20:43;100310.34;;;17.80;100.00
38289;BME280;24092;53.370;-6.588;2022-07-19T05:23:09;100318.57;;;17.82;100.00
38289;BME280;24092;53.370;-6.588;2022-07-19T05:25:36;100330.04;;;18.84;100.00
38289;BME280;24092;53.370;-6.588;2022-07-19T05:28:04;100331.74;;;17.81;100.00
38289;BME280;24092;53.370;-6.588;2022-07-19T05:30:31;100326.20;;;17.62;100.00
38289;BME280;24092;53.370;-6.588;2022-07-19T05:32:58;100316.53;;;17.15;100.00
38289;BME280;24092;53.370;-6.588;2022-07-19T05:35:25;100323.16;;;14.19;100.00
38289;BME280;24092;53.370;-6.588;2022-07-19T05:37:52;100329.43;;;15.56;100.00
38289;BME280;24092;53.370;-6.588;2022-07-19T05:40:19;100336.90;;;16.49;100.00
38289;BME280;24092;53.370;-6.588;2022-07-19T05:42:47;100330.49;;;17.32;100.00
38289;BME280;24092;53.370;-6.588;2022-07-19T05:45:14;100321.82;;;15.46;100.00
38289;BME280;24092;53.370;-6.588;2022-07-19T05:47:42;100317.53;;;14.85;100.00
38289;BME280;24092;53.370;-6.588;2022-07-19T05:50:09;100314.60;;;14.90;100.00
38289;BME280;24092;53.370;-6.588;2022-07-19T05:52:37;100310.65;;;14.48;100.00
38289;BME280;24092;53.370;-6.588;2022-07-19T05:55:05;100307.14;;;14.52;100.00
38289;BME280;24092;53.370;-6.588;2022-07-19T05:57:33;100303.12;;;15.12;100.00
38289;BME280;24092;53.370;-6.588;2022-07-19T06:00:01;100302.45;;;15.09;100.00
38289;BME280;24092;53.370;-6.588;2022-07-19T06:02:29;100297.56;;;14.30;100.00
38289;BME280;24092;53.370;-6.588;2022-07-19T06:04:56;100299.12;;;14.78;100.00
38289;BME280;24092;53.370;-6.588;2022-07-19T06:07:23;100300.85;;;16.01;100.00
38289;BME280;24092;53.370;-6.588;2022-07-19T06:09:50;100295.38;;;15.16;100.00
38289;BME280;24092;53.370;-6.588;2022-07-19T06:12:17;100298.06;;;15.29;100.00
38289;BME280;24092;53.370;-6.588;2022-07-19T06:14:45;100302.55;;;16.77;100.00
38289;BME280;24092;53.370;-6.588;2022-07-19T06:17:12;100304.78;;;15.97;100.00
38289;BME280;24092;53.370;-6.588;2022-07-19T06:19:39;100316.10;;;15.19;100.00
38289;BME280;24092;53.370;-6.588;2022-07-19T06:22:07;100330.36;;;14.39;100.00
38289;BME280;24092;53.370;-6.588;2022-07-19T06:24:34;100331.10;;;16.41;100.00
38289;BME280;24092;53.370;-6.588;2022-07-19T06:27:02;100324.05;;;16.38;100.00
38289;BME280;24092;53.370;-6.588;2022-07-19T06:29:29;100319.75;;;15.76;100.00
38289;BME280;24092;53.370;-6.588;2022-07-19T06:31:56;100320.61;;;16.56;100.00
38289;BME280;24092;53.370;-6.588;2022-07-19T06:34:24;100319.64;;;16.63;100.00
38289;BME280;24092;53.370;-6.588;2022-07-19T06:36:51;100313.31;;;17.85;100.00
38289;BME280;24092;53.370;-6.588;2022-07-19T06:39:18;100315.82;;;16.10;100.00
38289;BME280;24092;53.370;-6.588;2022-07-19T06:41:46;100311.97;;;16.69;100.00
38289;BME280;24092;53.370;-6.588;2022-07-19T06:44:13;100309.24;;;15.74;100.00
38289;BME280;24092;53.370;-6.588;2022-07-19T06:46:41;100311.39;;;15.50;100.00
38289;BME280;24092;53.370;-6.588;2022-07-19T06:49:08;100310.37;;;15.96;100.00
38289;BME280;24092;53.370;-6.588;2022-07-19T06:51:36;100307.51;;;16.19;100.00
38289;BME280;24092;53.370;-6.588;2022-07-19T06:54:03;100302.98;;;17.70;100.00
38289;BME280;24092;53.370;-6.588;2022-07-19T06:56:31;100305.00;;;18.50;100.00
38289;BME280;24092;53.370;-6.588;2022-07-19T06:58:59;100306.38;;;18.90;100.00
38289;BME280;24092;53.370;-6.588;2022-07-19T07:01:26;100297.26;;;18.08;100.00
38289;BME280;24092;53.370;-6.588;2022-07-19T07:03:54;100296.10;;;19.96;100.00
38289;BME280;24092;53.370;-6.588;2022-07-19T07:06:21;100294.62;;;20.02;100.00
38289;BME280;24092;53.370;-6.588;2022-07-19T07:08:48;100304.31;;;18.56;100.00
38289;BME280;24092;53.370;-6.588;2022-07-19T07:11:15;100304.81;;;20.43;100.00
38289;BME280;24092;53.370;-6.588;2022-07-19T07:13:43;100310.63;;;19.86;100.00
38289;BME280;24092;53.370;-6.588;2022-07-19T07:16:10;100314.02;;;20.71;100.00
38289;BME280;24092;53.370;-6.588;2022-07-19T07:18:38;100310.68;;;20.04;100.00
38289;BME280;24092;53.370;-6.588;2022-07-19T07:21:05;100313.33;;;18.94;100.00
38289;BME280;24092;53.370;-6.588;2022-07-19T07:23:33;100305.36;;;19.91;100.00
38289;BME280;24092;53.370;-6.588;2022-07-19T07:26:00;100290.79;;;16.87;100.00
38289;BME280;24092;53.370;-6.588;2022-07-19T07:28:28;100286.32;;;17.84;100.00
38289;BME280;24092;53.370;-6.588;2022-07-19T07:30:55;100287.63;;;17.86;100.00
38289;BME280;24092;53.370;-6.588;2022-07-19T07:33:23;100289.55;;;19.96;100.00
38289;BME280;24092;53.370;-6.588;2022-07-19T07:35:50;100294.35;;;19.26;100.00
38289;BME280;24092;53.370;-6.588;2022-07-19T07:38:18;100289.51;;;19.22;100.00
38289;BME280;24092;53.370;-6.588;2022-07-19T07:40:46;100276.93;;;18.78;100.00
38289;BME280;24092;53.370;-6.588;2022-07-19T07:43:13;100271.86;;;18.56;100.00
38289;BME280;24092;53.370;-6.588;2022-07-19T07:45:40;100269.44;;;19.59;100.00
38289;BME280;24092;53.370;-6.588;2022-07-19T07:48:08;100268.00;;;20.19;100.00
38289;BME280;24092;53.370;-6.588;2022-07-19T07:50:35;100265.16;;;19.00;100.00
38289;BME280;24092;53.370;-6.588;2022-07-19T07:53:03;100263.22;;;18.73;100.00
38289;BME280;24092;53.370;-6.588;2022-07-19T07:55:30;100259.97;;;21.46;100.00
38289;BME280;24092;53.370;-6.588;2022-07-19T07:57:58;100256.80;;;20.83;100.00
38289;BME280;24092;53.370;-6.588;2022-07-19T08:00:25;100259.07;;;20.96;100.00
38289;BME280;24092;53.370;-6.588;2022-07-19T08:02:53;100257.65;;;19.50;100.00
38289;BME280;24092;53.370;-6.588;2022-07-19T08:05:21;100262.46;;;22.65;100.00
38289;BME280;24092;53.370;-6.588;2022-07-19T08:07:48;100272.36;;;21.97;100.00
38289;BME280;24092;53.370;-6.588;2022-07-19T08:10:15;100272.57;;;20.63;100.00
38289;BME280;24092;53.370;-6.588;2022-07-19T08:12:42;100267.42;;;20.23;100.00
38289;BME280;24092;53.370;-6.588;2022-07-19T08:15:10;100264.89;;;20.10;100.00
38289;BME280;24092;53.370;-6.588;2022-07-19T08:17:37;100266.28;;;19.32;100.00
38289;BME280;24092;53.370;-6.588;2022-07-19T08:20:06;100262.31;;;20.02;100.00
38289;BME280;24092;53.370;-6.588;2022-07-19T08:22:33;100266.64;;;19.60;100.00
38289;BME280;24092;53.370;-6.588;2022-07-19T08:25:00;100271.30;;;20.91;100.00
38289;BME280;24092;53.370;-6.588;2022-07-19T08:27:28;100269.16;;;20.59;100.00
38289;BME280;24092;53.370;-6.588;2022-07-19T08:29:55;100269.06;;;21.35;100.00
38289;BME280;24092;53.370;-6.588;2022-07-19T08:32:23;100277.11;;;22.40;100.00
38289;BME280;24092;53.370;-6.588;2022-07-19T08:34:50;100288.81;;;24.31;100.00
38289;BME280;24092;53.370;-6.588;2022-07-19T08:37:18;100288.56;;;24.09;100.00
38289;BME280;24092;53.370;-6.588;2022-07-19T08:39:45;100288.02;;;24.28;97.61
38289;BME280;24092;53.370;-6.588;2022-07-19T08:42:12;100283.31;;;25.27;95.88
38289;BME280;24092;53.370;-6.588;2022-07-19T08:44:41;100288.12;;;23.52;95.92
38289;BME280;24092;53.370;-6.588;2022-07-19T08:47:10;100284.20;;;24.23;92.89
38289;BME280;24092;53.370;-6.588;2022-07-19T08:49:37;100283.90;;;23.09;93.77
38289;BME280;24092;53.370;-6.588;2022-07-19T08:52:05;100280.95;;;23.04;94.02
38289;BME280;24092;53.370;-6.588;2022-07-19T08:54:33;100284.74;;;22.47;94.29
38289;BME280;24092;53.370;-6.588;2022-07-19T08:57:00;100287.25;;;22.04;96.15
38289;BME280;24092;53.370;-6.588;2022-07-19T08:59:27;100288.93;;;21.40;97.42
38289;BME280;24092;53.370;-6.588;2022-07-19T09:01:54;100291.01;;;20.15;100.00
38289;BME280;24092;53.370;-6.588;2022-07-19T09:04:22;100290.54;;;23.17;96.70
38289;BME280;24092;53.370;-6.588;2022-07-19T09:06:51;100283.00;;;21.74;100.00
38289;BME280;24092;53.370;-6.588;2022-07-19T09:09:20;100281.34;;;23.05;97.10
38289;BME280;24092;53.370;-6.588;2022-07-19T09:11:55;100283.04;;;21.22;100.00
38289;BME280;24092;53.370;-6.588;2022-07-19T09:14:24;100285.77;;;22.13;100.00
38289;BME280;24092;53.370;-6.588;2022-07-19T09:16:55;100285.16;;;22.08;100.00
38289;BME280;24092;53.370;-6.588;2022-07-19T09:19:24;100276.62;;;20.34;100.00
38289;BME280;24092;53.370;-6.588;2022-07-19T09:21:54;100279.60;;;19.48;100.00
38289;BME280;24092;53.370;-6.588;2022-07-19T09:24:22;100278.87;;;21.36;100.00
38289;BME280;24092;53.370;-6.588;2022-07-19T09:27:00;100278.69;;;21.94;100.00
38289;BME280;24092;53.370;-6.588;2022-07-19T09:29:30;100277.45;;;19.74;100.00
38289;BME280;24092;53.370;-6.588;2022-07-19T09:32:02;100273.92;;;19.39;100.00
38289;BME280;24092;53.370;-6.588;2022-07-19T09:34:30;100272.12;;;18.40;100.00
38289;BME280;24092;53.370;-6.588;2022-07-19T09:37:17;100271.78;;;18.74;100.00
38289;BME280;24092;53.370;-6.588;2022-07-19T09:39:45;100277.06;;;18.60;100.00
38289;BME280;24092;53.370;-6.588;2022-07-19T09:42:15;100293.79;;;19.53;100.00
38289;BME280;24092;53.370;-6.588;2022-07-19T09:44:43;100335.91;;;22.22;100.00
38289;BME280;24092;53.370;-6.588;2022-07-19T09:47:12;100396.88;;;22.81;100.00
38289;BME280;24092;53.370;-6.588;2022-07-19T09:49:39;100433.48;;;22.13;100.00
38289;BME280;24092;53.370;-6.588;2022-07-19T09:52:08;100418.71;;;21.43;100.00
38289;BME280;24092;53.370;-6.588;2022-07-19T09:54:37;100384.69;;;21.59;100.00
38289;BME280;24092;53.370;-6.588;2022-07-19T09:57:07;100366.37;;;21.87;100.00
38289;BME280;24092;53.370;-6.588;2022-07-19T09:59:35;100383.84;;;21.32;100.00
38289;BME280;24092;53.370;-6.588;2022-07-19T10:02:04;100384.42;;;21.28;100.00
38289;BME280;24092;53.370;-6.588;2022-07-19T10:04:32;100367.94;;;22.00;100.00
38289;BME280;24092;53.370;-6.588;2022-07-19T10:07:00;100360.65;;;21.61;100.00
38289;BME280;24092;53.370;-6.588;2022-07-19T10:09:27;100342.22;;;21.28;100.00
38289;BME280;24092;53.370;-6.588;2022-07-19T10:11:55;100337.98;;;21.75;100.00
38289;BME280;24092;53.370;-6.588;2022-07-19T10:14:23;100336.10;;;21.84;100.00
38289;BME280;24092;53.370;-6.588;2022-07-19T10:17:01;100345.87;;;22.18;100.00
38289;BME280;24092;53.370;-6.588;2022-07-19T10:19:35;100345.12;;;22.82;100.00
38289;BME280;24092;53.370;-6.588;2022-07-19T10:22:04;100345.70;;;23.14;100.00
38289;BME280;24092;53.370;-6.588;2022-07-19T10:24:42;100331.20;;;22.33;100.00
38289;BME280;24092;53.370;-6.588;2022-07-19T10:27:10;100332.40;;;22.78;100.00
38289;BME280;24092;53.370;-6.588;2022-07-19T10:29:38;100329.63;;;22.61;100.00
38289;BME280;24092;53.370;-6.588;2022-07-19T10:32:08;100328.08;;;23.19;100.00
38289;BME280;24092;53.370;-6.588;2022-07-19T10:34:35;100322.77;;;22.90;100.00
38289;BME280;24092;53.370;-6.588;2022-07-19T10:37:03;100326.96;;;22.78;100.00
38289;BME280;24092;53.370;-6.588;2022-07-19T10:39:31;100322.59;;;22.75;100.00
38289;BME280;24092;53.370;-6.588;2022-07-19T10:42:10;100312.19;;;22.47;100.00
38289;BME280;24092;53.370;-6.588;2022-07-19T10:45:10;100301.87;;;23.11;100.00
38289;BME280;24092;53.370;-6.588;2022-07-19T10:48:12;100288.99;;;23.28;100.00
38289;BME280;24092;53.370;-6.588;2022-07-19T10:50:53;100268.10;;;22.89;100.00
38289;BME280;24092;53.370;-6.588;2022-07-19T10:53:54;100273.36;;;21.43;100.00
38289;BME280;24092;53.370;-6.588;2022-07-19T10:56:24;100267.76;;;22.42;100.00
38289;BME280;24092;53.370;-6.588;2022-07-19T10:58:53;100281.28;;;24.10;97.89
38289;BME280;24092;53.370;-6.588;2022-07-19T11:01:22;100329.94;;;23.79;98.87
38289;BME280;24092;53.370;-6.588;2022-07-19T11:03:51;100363.52;;;23.21;100.00
38289;BME280;24092;53.370;-6.588;2022-07-19T11:06:22;100384.89;;;22.38;100.00
38289;BME280;24092;53.370;-6.588;2022-07-19T11:08:53;100387.08;;;22.13;100.00
38289;BME280;24092;53.370;-6.588;2022-07-19T11:11:21;100392.89;;;21.72;100.00
38289;BME280;24092;53.370;-6.588;2022-07-19T11:13:50;100393.13;;;21.46;100.00
38289;BME280;24092;53.370;-6.588;2022-07-19T11:16:18;100381.53;;;21.63;100.00
38289;BME280;24092;53.370;-6.588;2022-07-19T11:18:46;100366.10;;;21.73;100.00
38289;BME280;24092;53.370;-6.588;2022-07-19T11:21:15;100359.44;;;21.24;100.00
38289;BME280;24092;53.370;-6.588;2022-07-19T11:23:44;100332.76;;;21.53;100.00
38289;BME280;24092;53.370;-6.588;2022-07-19T11:26:13;100310.52;;;21.37;100.00
38289;BME280;24092;53.370;-6.588;2022-07-19T11:28:42;100340.66;;;22.41;100.00
38289;BME280;24092;53.370;-6.588;2022-07-19T11:31:12;100362.09;;;22.31;100.00
38289;BME280;24092;53.370;-6.588;2022-07-19T11:33:40;100357.82;;;22.72;100.00
38289;BME280;24092;53.370;-6.588;2022-07-19T11:36:08;100355.86;;;22.42;100.00
38289;BME280;24092;53.370;-6.588;2022-07-19T11:38:38;100347.73;;;22.63;100.00
38289;BME280;24092;53.370;-6.588;2022-07-19T11:41:11;100329.53;;;22.29;100.00
38289;BME280;24092;53.370;-6.588;2022-07-19T11:43:39;100320.72;;;23.06;100.00
38289;BME280;24092;53.370;-6.588;2022-07-19T11:46:06;100311.08;;;21.98;100.00
38289;BME280;24092;53.370;-6.588;2022-07-19T11:48:34;100296.61;;;22.61;100.00
38289;BME280;24092;53.370;-6.588;2022-07-19T11:51:04;100280.86;;;23.00;100.00
38289;BME280;24092;53.370;-6.588;2022-07-19T11:53:34;100263.84;;;20.87;100.00
38289;BME280;24092;53.370;-6.588;2022-07-19T11:56:03;100257.01;;;20.87;100.00
38289;BME280;24092;53.370;-6.588;2022-07-19T11:58:31;100253.11;;;21.19;100.00
38289;BME280;24092;53.370;-6.588;2022-07-19T12:01:02;100249.28;;;20.32;100.00
38289;BME280;24092;53.370;-6.588;2022-07-19T12:03:30;100250.57;;;21.73;100.00
38289;BME280;24092;53.370;-6.588;2022-07-19T12:05:58;100238.23;;;19.63;100.00
38289;BME280;24092;53.370;-6.588;2022-07-19T12:08:35;100224.59;;;19.16;100.00
38289;BME280;24092;53.370;-6.588;2022-07-19T12:11:15;100229.68;;;18.10;100.00
38289;BME280;24092;53.370;-6.588;2022-07-19T12:13:43;100224.00;;;18.15;100.00
38289;BME280;24092;53.370;-6.588;2022-07-19T12:16:11;100220.25;;;18.69;100.00
38289;BME280;24092;53.370;-6.588;2022-07-19T12:18:45;100252.52;;;18.22;100.00
38289;BME280;24092;53.370;-6.588;2022-07-19T12:21:17;100287.96;;;18.58;100.00
38289;BME280;24092;53.370;-6.588;2022-07-19T12:24:10;100296.31;;;19.27;100.00
38289;BME280;24092;53.370;-6.588;2022-07-19T12:26:39;100275.75;;;18.22;100.00
38289;BME280;24092;53.370;-6.588;2022-07-19T12:29:24;100274.03;;;18.11;100.00
38289;BME280;24092;53.370;-6.588;2022-07-19T12:31:54;100267.40;;;17.38;100.00
38289;BME280;24092;53.370;-6.588;2022-07-19T12:34:21;100268.18;;;17.07;100.00
38289;BME280;24092;53.370;-6.588;2022-07-19T12:36:49;100297.31;;;17.60;100.00
38289;BME280;24092;53.370;-6.588;2022-07-19T12:39:19;100309.96;;;17.79;100.00
38289;BME280;24092;53.370;-6.588;2022-07-19T12:41:59;100293.82;;;17.83;100.00
38289;BME280;24092;53.370;-6.588;2022-07-19T12:44:27;100277.56;;;20.26;100.00
38289;BME280;24092;53.370;-6.588;2022-07-19T12:46:56;100271.69;;;20.68;100.00
38289;BME280;24092;53.370;-6.588;2022-07-19T12:49:23;100266.30;;;19.54;100.00
38289;BME280;24092;53.370;-6.588;2022-07-19T12:51:51;100270.56;;;18.55;100.00
38289;BME280;24092;53.370;-6.588;2022-07-19T12:54:18;100264.47;;;18.54;100.00
38289;BME280;24092;53.370;-6.588;2022-07-19T12:56:45;100257.14;;;18.90;100.00
38289;BME280;24092;53.370;-6.588;2022-07-19T12:59:13;100249.18;;;18.37;100.00
38289;BME280;24092;53.370;-6.588;2022-07-19T13:01:40;100231.72;;;18.48;100.00
38289;BME280;24092;53.370;-6.588;2022-07-19T13:04:08;100223.90;;;19.41;100.00
38289;BME280;24092;53.370;-6.588;2022-07-19T13:06:36;100221.49;;;19.62;100.00
38289;BME280;24092;53.370;-6.588;2022-07-19T13:09:03;100217.08;;;18.65;100.00
38289;BME280;24092;53.370;-6.588;2022-07-19T13:11:30;100195.01;;;18.68;100.00
38289;BME280;24092;53.370;-6.588;2022-07-19T13:13:57;100193.83;;;18.82;100.00
38289;BME280;24092;53.370;-6.588;2022-07-19T13:16:25;100184.89;;;19.77;100.00
38289;BME280;24092;53.370;-6.588;2022-07-19T13:18:52;100189.68;;;20.16;100.00
38289;BME280;24092;53.370;-6.588;2022-07-19T13:21:20;100201.14;;;19.98;100.00
38289;BME280;24092;53.370;-6.588;2022-07-19T13:23:47;100208.84;;;19.89;100.00
38289;BME280;24092;53.370;-6.588;2022-07-19T13:26:15;100209.02;;;19.26;100.00
38289;BME280;24092;53.370;-6.588;2022-07-19T13:28:42;100212.99;;;19.42;100.00
38289;BME280;24092;53.370;-6.588;2022-07-19T13:31:09;100217.71;;;20.30;100.00
38289;BME280;24092;53.370;-6.588;2022-07-19T13:33:37;100215.79;;;22.38;100.00
38289;BME280;24092;53.370;-6.588;2022-07-19T13:36:04;100220.02;;;21.59;100.00
38289;BME280;24092;53.370;-6.588;2022-07-19T13:38:31;100231.31;;;20.88;100.00
38289;BME280;24092;53.370;-6.588;2022-07-19T13:40:59;100241.39;;;20.62;100.00
38289;BME280;24092;53.370;-6.588;2022-07-19T13:43:26;100244.23;;;21.71;100.00
38289;BME280;24092;53.370;-6.588;2022-07-19T13:45:53;100247.75;;;24.08;100.00
38289;BME280;24092;53.370;-6.588;2022-07-19T13:48:21;100238.87;;;21.48;100.00
38289;BME280;24092;53.370;-6.588;2022-07-19T13:50:48;100233.58;;;21.58;100.00